Time;durP1;ratioP1;P1;durP2;ratioP2;P2;SDS_P1;SDS_P2;PMS_P1;PMS_P2;Temp;Humidity;BMP_temperature;BMP_pressure;BME280_temperature;BME280_humidity;BME280_pressure;Samples;Min_cycle;Max_cycle;Signal;HPM_P1;HPM_P2
2023/07/23 00:00:30;;;;;;;12.60;7.63;;;17.50;99.90;;;;;;5035420;28;20026;-90
2023/07/23 00:02:56;;;;;;;8.68;5.95;;;17.50;99.90;;;;;;5043042;28;20035;-89
2023/07/23 00:05:25;;;;;;;11.35;6.57;;;17.50;99.90;;;;;;5047079;28;20089;-90
2023/07/23 00:07:55;;;;;;;11.60;6.80;;;17.50;99.90;;;;;;5044543;28;20026;-89
2023/07/23 00:10:23;;;;;;;9.88;5.75;;;17.50;99.90;;;;;;5019048;28;20050;-89
2023/07/23 00:12:49;;;;;;;12.55;7.03;;;17.50;99.90;;;;;;5034365;28;20033;-89
2023/07/23 00:15:15;;;;;;;10.52;6.95;;;17.50;99.90;;;;;;5034309;28;20581;-90
2023/07/23 00:17:41;;;;;;;9.68;6.30;;;17.50;99.90;;;;;;5034643;28;20026;-89
2023/07/23 00:20:08;;;;;;;13.80;8.05;;;17.50;99.90;;;;;;5033886;28;20025;-89
2023/07/23 00:22:34;;;;;;;11.70;7.28;;;17.50;99.90;;;;;;5034906;28;20112;-89
2023/07/23 00:24:59;;;;;;;14.35;7.60;;;17.50;99.90;;;;;;5050682;28;20117;-93
2023/07/23 00:27:25;;;;;;;14.50;7.68;;;17.50;99.90;;;;;;5033786;28;20059;-92
2023/07/23 00:29:51;;;;;;;12.80;9.10;;;17.50;99.90;;;;;;5034227;28;20364;-91
2023/07/23 00:32:17;;;;;;;15.27;10.05;;;17.50;99.90;;;;;;5034182;28;20025;-93
2023/07/23 00:34:43;;;;;;;14.15;8.75;;;17.50;99.90;;;;;;5034081;28;20154;-91
2023/07/23 00:37:09;;;;;;;13.55;8.43;;;17.50;99.90;;;;;;5036192;28;20504;-90
2023/07/23 00:39:35;;;;;;;15.18;9.93;;;17.60;99.90;;;;;;5033797;28;20030;-91
2023/07/23 00:42:00;;;;;;;14.93;8.48;;;17.60;99.90;;;;;;5037113;28;20026;-91
2023/07/23 00:44:26;;;;;;;12.43;7.90;;;17.60;99.90;;;;;;5047137;28;20097;-92
2023/07/23 00:46:53;;;;;;;12.13;8.75;;;17.50;99.90;;;;;;5052107;28;20478;-92
2023/07/23 00:49:19;;;;;;;12.60;8.32;;;17.50;99.90;;;;;;5040561;28;20036;-90
2023/07/23 00:51:45;;;;;;;12.30;8.10;;;17.50;99.90;;;;;;5033607;28;20017;-92
2023/07/23 00:54:13;;;;;;;16.92;8.25;;;17.50;99.90;;;;;;5034350;28;20467;-92
2023/07/23 00:56:40;;;;;;;13.48;7.65;;;17.50;99.90;;;;;;5048372;28;20033;-92
2023/07/23 00:59:08;;;;;;;16.27;8.15;;;17.50;99.90;;;;;;5034470;28;20075;-93
2023/07/23 01:01:33;;;;;;;11.57;7.32;;;17.40;99.90;;;;;;5048544;28;20096;-92
2023/07/23 01:03:59;;;;;;;12.70;7.50;;;17.40;99.90;;;;;;5042180;28;20064;-91
2023/07/23 01:06:27;;;;;;;14.05;7.72;;;17.40;99.90;;;;;;5042019;28;20069;-93
2023/07/23 01:08:56;;;;;;;13.75;7.63;;;17.40;99.90;;;;;;5041201;28;20021;-93
2023/07/23 01:11:23;;;;;;;11.75;7.63;;;17.40;99.90;;;;;;5042700;28;20132;-92
2023/07/23 01:13:51;;;;;;;10.98;6.90;;;17.40;99.90;;;;;;5041692;28;20107;-90
2023/07/23 01:16:18;;;;;;;11.70;7.63;;;17.40;99.90;;;;;;5034325;28;20029;-90
2023/07/23 01:18:43;;;;;;;10.43;6.97;;;17.40;99.90;;;;;;5033482;28;20025;-89
2023/07/23 01:21:10;;;;;;;12.43;7.30;;;17.40;99.90;;;;;;5033215;28;20080;-89
2023/07/23 01:23:37;;;;;;;9.48;6.40;;;17.40;99.90;;;;;;5033142;28;20021;-89
2023/07/23 01:26:03;;;;;;;11.80;8.27;;;17.50;99.90;;;;;;5033186;28;20112;-89
2023/07/23 01:28:29;;;;;;;11.30;7.13;;;17.50;99.90;;;;;;5049632;28;20053;-89
2023/07/23 01:30:55;;;;;;;11.48;6.95;;;17.40;99.90;;;;;;5033465;28;20041;-89
2023/07/23 01:33:22;;;;;;;14.32;7.95;;;17.50;99.90;;;;;;5033416;28;20378;-90
2023/07/23 01:35:53;;;;;;;9.40;6.60;;;17.50;99.90;;;;;;5033067;28;20101;-90
2023/07/23 01:38:19;;;;;;;;;;;17.50;99.90;;;;;;5033776;28;20021;-92
2023/07/23 01:40:45;;;;;;;11.25;7.22;;;17.50;99.90;;;;;;5033257;28;19916;-92
2023/07/23 01:43:12;;;;;;;13.75;7.60;;;17.50;99.90;;;;;;5033442;28;20025;-89
2023/07/23 01:45:41;;;;;;;14.20;7.72;;;17.50;99.90;;;;;;5032931;28;20022;-90
2023/07/23 01:48:07;;;;;;;18.25;7.65;;;17.50;99.90;;;;;;5032868;28;20116;-90
2023/07/23 01:50:33;;;;;;;10.88;7.43;;;17.50;99.90;;;;;;5032735;28;20128;-89
2023/07/23 01:52:58;;;;;;;11.35;7.20;;;17.50;99.90;;;;;;5032814;28;20030;-91
2023/07/23 01:55:24;;;;;;;13.90;7.70;;;17.50;99.90;;;;;;5033576;28;20060;-92
2023/07/23 01:57:50;;;;;;;12.95;7.70;;;17.50;99.90;;;;;;5033401;28;20478;-91
2023/07/23 02:00:16;;;;;;;11.70;7.38;;;17.50;99.90;;;;;;5033025;28;20109;-92
2023/07/23 02:02:41;;;;;;;13.15;7.70;;;17.50;99.90;;;;;;5033164;28;20036;-91
2023/07/23 02:05:08;;;;;;;14.75;7.28;;;17.50;99.90;;;;;;5033058;28;20065;-91
2023/07/23 02:07:33;;;;;;;11.00;6.72;;;17.40;99.90;;;;;;5032509;28;20025;-90
2023/07/23 02:10:00;;;;;;;10.85;6.75;;;17.40;99.90;;;;;;5032759;28;20037;-90
2023/07/23 02:12:25;;;;;;;15.32;7.80;;;17.40;99.90;;;;;;5032618;28;20014;-89
2023/07/23 02:14:51;;;;;;;10.02;7.45;;;17.40;99.90;;;;;;5032665;28;20026;-89
2023/07/23 02:17:17;;;;;;;12.90;7.95;;;17.40;99.90;;;;;;5032471;28;20032;-90
2023/07/23 02:19:42;;;;;;;15.52;8.18;;;17.40;99.90;;;;;;5032546;28;20065;-89
2023/07/23 02:22:08;;;;;;;12.30;7.47;;;17.40;99.90;;;;;;5035302;28;20037;-89
2023/07/23 02:24:34;;;;;;;11.35;7.13;;;17.40;99.90;;;;;;5038607;28;20104;-90
2023/07/23 02:26:59;;;;;;;13.73;7.38;;;17.30;99.90;;;;;;5038777;28;20060;-90
2023/07/23 02:29:25;;;;;;;12.65;7.30;;;17.40;99.90;;;;;;5041563;28;20026;-90
2023/07/23 02:31:50;;;;;;;10.90;7.10;;;17.30;99.90;;;;;;5038921;28;20053;-89
2023/07/23 02:34:16;;;;;;;11.07;7.20;;;17.30;99.90;;;;;;5037002;28;20026;-90
2023/07/23 02:36:46;;;;;;;12.40;7.88;;;17.30;99.90;;;;;;5036319;28;20049;-89
2023/07/23 02:39:12;;;;;;;13.15;7.25;;;17.30;99.90;;;;;;5036263;28;20112;-89
2023/07/23 02:41:37;;;;;;;11.00;6.25;;;17.30;99.90;;;;;;5035816;28;20045;-89
2023/07/23 02:44:03;;;;;;;13.35;7.45;;;17.30;99.90;;;;;;5038596;28;20030;-89
2023/07/23 02:46:29;;;;;;;9.85;6.15;;;17.30;99.90;;;;;;5035718;28;20034;-90
2023/07/23 02:48:55;;;;;;;15.55;7.90;;;17.30;99.90;;;;;;5035986;28;20018;-90
2023/07/23 02:51:21;;;;;;;13.63;7.80;;;17.30;99.90;;;;;;5035797;28;20529;-89
2023/07/23 02:53:47;;;;;;;11.10;6.97;;;17.30;99.90;;;;;;5035794;28;20029;-89
2023/07/23 02:56:13;;;;;;;10.85;7.32;;;17.30;99.90;;;;;;5036134;28;20466;-92
2023/07/23 02:58:38;;;;;;;15.23;7.70;;;17.30;99.90;;;;;;5035676;28;20025;-91
2023/07/23 03:01:04;;;;;;;11.57;7.03;;;17.30;99.90;;;;;;5035949;28;20040;-93
2023/07/23 03:03:30;;;;;;;12.23;7.10;;;17.30;99.90;;;;;;5035809;28;20116;-90
2023/07/23 03:05:55;;;;;;;11.45;6.68;;;17.30;99.90;;;;;;5035453;28;20070;-89
2023/07/23 03:08:21;;;;;;;11.88;7.28;;;17.30;99.90;;;;;;5035500;28;20036;-90
2023/07/23 03:10:46;;;;;;;11.25;7.03;;;17.30;99.90;;;;;;5052043;28;20025;-90
2023/07/23 03:13:12;;;;;;;14.57;7.70;;;17.30;99.90;;;;;;5035424;28;20116;-89
2023/07/23 03:15:38;;;;;;;10.05;6.95;;;17.30;99.90;;;;;;5035644;28;20045;-90
2023/07/23 03:18:04;;;;;;;11.23;7.38;;;17.30;99.90;;;;;;5052126;28;20474;-90
2023/07/23 03:20:30;;;;;;;11.23;6.63;;;17.30;99.90;;;;;;5035501;28;20032;-89
2023/07/23 03:22:56;;;;;;;15.43;7.93;;;17.30;99.90;;;;;;5035524;28;20032;-91
2023/07/23 03:25:21;;;;;;;11.20;6.45;;;17.20;99.90;;;;;;5035203;28;20037;-90
2023/07/23 03:27:47;;;;;;;12.40;6.63;;;17.20;99.90;;;;;;5035006;28;20053;-90
2023/07/23 03:30:12;;;;;;;11.82;6.55;;;17.20;99.90;;;;;;5035276;28;20029;-90
2023/07/23 03:32:39;;;;;;;10.05;5.97;;;17.20;99.90;;;;;;5035109;28;20025;-89
2023/07/23 03:35:05;;;;;;;8.98;6.28;;;17.20;99.90;;;;;;5034961;28;20033;-89
2023/07/23 03:37:31;;;;;;;12.40;6.40;;;17.30;99.90;;;;;;5035732;28;20048;-90
2023/07/23 03:39:57;;;;;;;10.27;6.85;;;17.30;99.90;;;;;;5035029;28;20022;-89
2023/07/23 03:42:24;;;;;;;10.13;6.20;;;17.20;99.90;;;;;;5034895;28;20479;-90
2023/07/23 03:44:49;;;;;;;9.38;5.78;;;17.20;99.90;;;;;;5035921;28;20028;-89
2023/07/23 03:47:17;;;;;;;9.23;5.90;;;17.20;99.90;;;;;;5034740;28;20452;-89
2023/07/23 03:49:44;;;;;;;12.13;6.20;;;17.20;99.90;;;;;;5034835;28;20109;-89
2023/07/23 03:52:10;;;;;;;9.50;5.95;;;17.10;99.90;;;;;;5034674;28;20538;-90
2023/07/23 03:54:36;;;;;;;10.85;6.25;;;17.10;99.90;;;;;;5034890;28;20053;-92
2023/07/23 03:57:02;;;;;;;10.35;6.25;;;17.10;99.90;;;;;;5034935;28;20040;-92
2023/07/23 03:59:49;;;;;;;11.55;7.03;;;17.10;99.90;;;;;;5036113;28;20033;-92
2023/07/23 04:02:15;;;;;;;11.48;6.55;;;17.10;99.90;;;;;;5034954;28;20071;-92
2023/07/23 04:04:40;;;;;;;12.13;5.95;;;17.00;99.90;;;;;;5034562;28;20030;-88
2023/07/23 04:07:07;;;;;;;10.30;6.40;;;17.00;99.90;;;;;;5050516;28;20378;-88
2023/07/23 04:09:33;;;;;;;9.18;6.07;;;17.00;99.90;;;;;;5034120;28;20088;-89
2023/07/23 04:11:59;;;;;;;15.43;6.03;;;16.90;99.90;;;;;;5034498;28;20517;-89
2023/07/23 04:14:26;;;;;;;14.07;7.03;;;16.90;99.90;;;;;;5034224;28;20498;-89
2023/07/23 04:16:52;;;;;;;10.82;7.07;;;16.90;99.90;;;;;;5034191;28;20453;-90
2023/07/23 04:19:18;;;;;;;10.35;6.22;;;16.90;99.90;;;;;;5034233;28;20034;-91
2023/07/23 04:21:44;;;;;;;11.73;6.60;;;16.90;99.90;;;;;;5034329;28;20421;-90
2023/07/23 04:24:10;;;;;;;12.75;6.28;;;16.90;99.90;;;;;;5034594;28;20506;-91
2023/07/23 04:26:35;;;;;;;9.48;6.05;;;16.90;99.90;;;;;;5034332;28;20045;-91
2023/07/23 04:29:01;;;;;;;10.18;5.88;;;17.00;99.90;;;;;;5034412;28;20021;-92
2023/07/23 04:31:27;;;;;;;12.30;6.13;;;17.00;99.90;;;;;;5034265;28;20109;-91
2023/07/23 04:33:53;;;;;;;9.77;5.68;;;17.00;99.90;;;;;;5035059;28;20018;-91
2023/07/23 04:36:19;;;;;;;9.20;5.75;;;16.90;99.90;;;;;;5034702;28;20029;-91
2023/07/23 04:38:46;;;;;;;10.32;6.15;;;17.00;99.90;;;;;;5034333;28;20040;-93
2023/07/23 04:41:12;;;;;;;10.38;6.43;;;17.00;99.90;;;;;;5034596;28;20025;-92
2023/07/23 04:43:39;;;;;;;9.15;6.18;;;17.00;99.90;;;;;;5034111;28;20087;-88
2023/07/23 04:46:05;;;;;;;8.98;6.15;;;17.10;99.90;;;;;;5033644;28;20021;-89
2023/07/23 04:48:35;;;;;;;10.98;5.75;;;17.10;99.90;;;;;;5033670;28;20017;-89
2023/07/23 04:51:05;;;;;;;12.40;6.27;;;17.10;99.90;;;;;;5033326;28;20022;-91
2023/07/23 04:53:31;;;;;;;8.05;5.28;;;17.10;99.90;;;;;;5033725;28;20060;-89
2023/07/23 04:55:58;;;;;;;11.07;5.00;;;17.10;99.90;;;;;;5033639;28;20028;-89
2023/07/23 04:58:25;;;;;;;9.48;5.07;;;17.10;99.90;;;;;;5033267;28;20022;-89
2023/07/23 05:00:52;;;;;;;8.82;5.40;;;17.20;99.90;;;;;;5033521;28;20486;-89
2023/07/23 05:03:18;;;;;;;12.18;5.40;;;17.20;99.90;;;;;;5033367;28;20052;-89
2023/07/23 05:05:51;;;;;;;7.25;4.93;;;17.20;99.90;;;;;;5034068;28;20040;-90
2023/07/23 05:08:21;;;;;;;13.02;5.32;;;17.20;99.90;;;;;;5035226;28;20040;-92
2023/07/23 05:10:47;;;;;;;9.57;4.97;;;17.20;99.90;;;;;;5034840;28;20037;-91
2023/07/23 05:13:14;;;;;;;13.43;5.25;;;17.20;99.90;;;;;;5038305;28;20026;-91
2023/07/23 05:15:40;;;;;;;8.40;4.90;;;17.30;99.90;;;;;;5039650;28;20127;-91
2023/07/23 05:18:06;;;;;;;7.43;4.68;;;17.30;99.90;;;;;;5042036;28;20029;-92
2023/07/23 05:20:44;;;;;;;9.00;5.38;;;17.30;99.90;;;;;;5042722;28;20028;-92
2023/07/23 05:23:28;;;;;;;8.15;4.97;;;17.30;99.90;;;;;;5039334;28;20120;-92
2023/07/23 05:25:57;;;;;;;9.80;4.88;;;17.40;99.90;;;;;;5033881;28;20048;-92
2023/07/23 05:28:23;;;;;;;9.20;4.60;;;17.40;99.90;;;;;;5033899;28;20107;-92
2023/07/23 05:30:49;;;;;;;11.07;4.50;;;17.40;99.90;;;;;;5033411;28;20418;-92
2023/07/23 05:33:14;;;;;;;7.72;4.18;;;17.40;99.90;;;;;;5033525;28;20029;-91
2023/07/23 05:35:40;;;;;;;13.85;4.85;;;17.40;99.90;;;;;;5033425;28;20021;-92
2023/07/23 05:38:06;;;;;;;7.35;4.68;;;17.40;99.90;;;;;;5033261;28;20030;-91
2023/07/23 05:40:35;;;;;;;10.18;4.88;;;17.40;99.90;;;;;;5035823;28;20030;-91
2023/07/23 05:43:17;;;;;;;;;;;;;;;;;;;;;
2023/07/23 05:46:00;;;;;;;8.63;4.18;;;17.50;99.90;;;;;;5034470;28;20475;-89
2023/07/23 05:48:45;;;;;;;9.55;4.50;;;17.50;99.90;;;;;;5032999;28;20029;-89
2023/07/23 05:51:10;;;;;;;10.00;4.53;;;17.50;99.90;;;;;;5032441;28;20129;-90
2023/07/23 05:53:36;;;;;;;11.35;4.65;;;17.50;99.90;;;;;;5033386;28;20057;-89
2023/07/23 05:56:02;;;;;;;10.05;4.43;;;17.50;99.90;;;;;;5033334;28;20022;-90
2023/07/23 05:58:27;;;;;;;8.77;4.45;;;17.50;99.90;;;;;;5035755;28;20045;-92
2023/07/23 06:00:53;;;;;;;11.13;4.93;;;17.50;99.90;;;;;;5051874;28;20025;-90
2023/07/23 06:03:19;;;;;;;10.38;4.38;;;17.50;99.90;;;;;;5055412;28;20126;-90
2023/07/23 06:05:45;;;;;;;9.80;4.93;;;17.50;99.90;;;;;;5057018;28;20010;-90
2023/07/23 06:08:11;;;;;;;8.75;4.80;;;17.50;99.90;;;;;;5052189;28;20041;-89
2023/07/23 06:10:36;;;;;;;9.50;4.88;;;17.50;99.90;;;;;;5036989;28;20382;-90
2023/07/23 06:13:02;;;;;;;8.68;4.45;;;17.50;99.90;;;;;;5036728;28;20033;-90
2023/07/23 06:15:28;;;;;;;10.40;4.70;;;17.40;99.90;;;;;;5036593;28;20034;-91
2023/07/23 06:17:53;;;;;;;9.20;4.90;;;17.40;99.90;;;;;;5036849;28;20026;-91
2023/07/23 06:20:19;;;;;;;11.32;5.10;;;17.40;99.90;;;;;;5036384;28;20374;-90
2023/07/23 06:22:45;;;;;;;9.25;4.82;;;17.40;99.90;;;;;;5036578;28;20179;-90
2023/07/23 06:25:10;;;;;;;13.05;4.68;;;17.40;99.90;;;;;;5036629;28;20084;-89
2023/07/23 06:27:38;;;;;;;7.05;4.80;;;17.40;99.90;;;;;;5053170;28;20054;-90
2023/07/23 06:30:04;;;;;;;7.97;4.60;;;17.40;99.90;;;;;;5036215;28;20025;-90
2023/07/23 06:32:29;;;;;;;9.15;4.80;;;17.40;99.90;;;;;;5036246;28;20470;-91
2023/07/23 06:34:55;;;;;;;8.43;4.82;;;17.40;99.90;;;;;;5036633;28;20033;-90
2023/07/23 06:37:21;;;;;;;10.52;5.13;;;17.40;99.90;;;;;;5036520;28;20037;-91
2023/07/23 06:39:46;;;;;;;14.55;4.80;;;17.40;99.90;;;;;;5036757;28;20445;-92
2023/07/23 06:42:12;;;;;;;8.80;4.75;;;17.40;99.90;;;;;;5036488;28;20029;-91
2023/07/23 06:44:40;;;;;;;9.38;5.10;;;17.40;99.90;;;;;;5036467;28;20033;-90
2023/07/23 06:47:05;;;;;;;10.65;4.75;;;17.40;99.90;;;;;;5036783;28;20036;-92
2023/07/23 06:49:31;;;;;;;7.70;4.72;;;17.40;99.90;;;;;;5036389;28;20483;-91
2023/07/23 06:51:57;;;;;;;10.77;4.85;;;17.40;99.90;;;;;;5036288;28;20029;-92
2023/07/23 06:54:23;;;;;;;7.53;4.32;;;17.40;99.90;;;;;;5036315;28;20025;-90
2023/07/23 06:56:50;;;;;;;7.53;4.65;;;17.40;99.90;;;;;;5036247;28;20493;-92
2023/07/23 06:59:16;;;;;;;6.30;4.38;;;17.30;99.90;;;;;;5036360;28;20030;-90
2023/07/23 07:01:42;;;;;;;9.50;4.45;;;17.30;99.90;;;;;;5035813;28;20021;-92
2023/07/23 07:04:07;;;;;;;7.90;4.78;;;17.30;99.90;;;;;;5052655;28;20108;-92
2023/07/23 07:06:33;;;;;;;9.15;4.90;;;17.20;99.90;;;;;;5035877;28;20028;-90
2023/07/23 07:08:58;;;;;;;13.13;5.00;;;17.20;99.90;;;;;;5035884;28;20381;-90
2023/07/23 07:11:44;;;;;;;8.40;5.30;;;17.20;99.90;;;;;;5035770;28;20443;-90
2023/07/23 07:14:10;;;;;;;7.80;4.65;;;17.20;99.90;;;;;;5018369;28;20049;-91
2023/07/23 07:16:39;;;;;;;10.38;5.22;;;17.10;99.90;;;;;;5035511;28;20034;-90
2023/07/23 07:19:33;;;;;;;7.70;4.63;;;17.10;99.90;;;;;;5035081;28;20367;-90
2023/07/23 07:22:02;;;;;;;11.15;5.43;;;17.10;99.90;;;;;;5017200;28;20049;-89
2023/07/23 07:31:11;;;;;;;9.73;5.15;;;16.90;99.90;;;;;;4981261;28;20061;-91
2023/07/23 07:33:38;;;;;;;11.40;5.65;;;16.80;99.90;;;;;;5018845;28;20055;-91
2023/07/23 07:36:04;;;;;;;9.52;6.13;;;16.80;99.90;;;;;;5018927;28;20037;-90
2023/07/23 07:38:30;;;;;;;14.18;5.43;;;16.80;99.90;;;;;;5022141;28;20027;-91
2023/07/23 07:41:00;;;;;;;11.25;5.20;;;16.80;99.90;;;;;;5036001;28;20041;-91
2023/07/23 07:43:28;;;;;;;10.15;5.88;;;16.80;99.90;;;;;;5033963;28;20014;-91
2023/07/23 07:45:58;;;;;;;8.15;5.47;;;16.80;99.90;;;;;;5031670;28;20076;-91
2023/07/23 07:48:23;;;;;;;8.63;5.30;;;16.70;99.90;;;;;;5033974;28;20040;-91
2023/07/23 07:51:04;;;;;;;13.10;6.88;;;16.70;99.90;;;;;;5027703;28;20026;-90
2023/07/23 07:53:34;;;;;;;9.15;5.65;;;16.80;99.90;;;;;;5018553;28;20017;-90
2023/07/23 07:56:04;;;;;;;11.15;6.00;;;16.70;99.90;;;;;;5018608;28;20033;-90
2023/07/23 07:59:17;;;;;;;12.73;6.30;;;16.70;99.90;;;;;;5037051;28;20115;-90
2023/07/23 08:01:49;;;;;;;9.75;5.85;;;16.70;99.90;;;;;;4977449;28;20474;-90
2023/07/23 08:04:53;;;;;;;8.77;5.57;;;16.60;99.90;;;;;;5037935;28;20055;-92
2023/07/23 08:10:34;;;;;;;12.25;6.40;;;16.60;99.90;;;;;;5040559;28;20037;-90
2023/07/23 08:13:28;;;;;;;10.10;5.68;;;16.60;99.90;;;;;;5038723;28;20347;-93
2023/07/23 08:16:00;;;;;;;12.68;6.75;;;16.50;99.90;;;;;;5038698;28;20101;-91
2023/07/23 08:18:31;;;;;;;10.02;6.65;;;16.50;99.90;;;;;;5038682;28;20071;-92
2023/07/23 08:21:20;;;;;;;10.80;5.95;;;16.50;99.90;;;;;;5038384;28;20032;-91
2023/07/23 08:23:46;;;;;;;15.93;6.22;;;16.50;99.90;;;;;;5038310;28;20029;-91
2023/07/23 08:26:18;;;;;;;14.07;7.07;;;16.50;99.90;;;;;;5021278;28;20066;-91
2023/07/23 08:28:51;;;;;;;12.45;6.60;;;16.50;99.90;;;;;;5037613;28;20068;-90
2023/07/23 08:31:18;;;;;;;13.20;7.03;;;16.60;99.90;;;;;;5051945;28;20473;-90
2023/07/23 08:34:52;;;;;;;10.35;6.72;;;16.50;99.90;;;;;;5020974;28;20452;-89
2023/07/23 08:37:11;;;;;;;13.18;7.03;;;16.40;99.90;;;;;;5030016;28;20104;-91
2023/07/23 08:39:37;;;;;;;10.93;6.22;;;16.50;99.90;;;;;;5015988;28;20125;-90
2023/07/23 08:42:30;;;;;;;10.32;6.82;;;16.50;99.90;;;;;;5031844;28;20036;-90
2023/07/23 08:45:19;;;;;;;11.25;7.10;;;16.50;99.90;;;;;;5054798;28;20029;-92
2023/07/23 08:47:47;;;;;;;15.27;7.57;;;16.50;99.90;;;;;;5053923;28;20047;-91
2023/07/23 08:50:14;;;;;;;13.25;7.00;;;16.50;99.90;;;;;;5053788;28;20028;-89
2023/07/23 08:52:45;;;;;;;11.65;6.70;;;16.50;99.90;;;;;;5053837;28;20107;-90
2023/07/23 08:55:11;;;;;;;;;;;16.60;99.90;;;;;;5037927;28;20120;-90
2023/07/23 08:57:38;;;;;;;11.70;6.90;;;16.60;99.90;;;;;;5055097;28;19955;-90
2023/07/23 09:00:06;;;;;;;10.75;6.82;;;16.60;99.90;;;;;;5037371;28;20090;-90
2023/07/23 09:02:34;;;;;;;10.60;6.40;;;16.60;99.90;;;;;;5037125;28;20040;-88
2023/07/23 09:04:59;;;;;;;13.05;6.90;;;16.60;99.90;;;;;;5053738;28;20155;-92
2023/07/23 09:07:26;;;;;;;10.23;6.18;;;16.60;99.90;;;;;;5020577;28;20075;-92
2023/07/23 09:09:51;;;;;;;12.95;6.93;;;16.70;99.90;;;;;;5037084;28;20116;-92
2023/07/23 09:12:17;;;;;;;10.52;5.97;;;16.70;99.90;;;;;;5036825;28;20057;-93
2023/07/23 09:14:44;;;;;;;11.80;6.43;;;16.70;99.90;;;;;;5020608;28;20501;-92
2023/07/23 09:17:17;;;;;;;11.55;6.00;;;16.70;99.90;;;;;;5037072;28;20047;-89
2023/07/23 09:19:43;;;;;;;9.18;5.30;;;16.80;99.90;;;;;;5046032;28;20029;-89
2023/07/23 09:22:08;;;;;;;10.45;6.25;;;16.80;99.90;;;;;;5073001;28;20031;-89
2023/07/23 09:24:34;;;;;;;9.48;5.88;;;16.80;99.90;;;;;;5045979;28;20045;-90
2023/07/23 09:27:01;;;;;;;9.70;5.38;;;16.90;99.90;;;;;;5031909;28;20032;-88
2023/07/23 09:29:35;;;;;;;14.20;5.80;;;16.90;99.90;;;;;;5042756;28;20033;-89
2023/07/23 09:32:01;;;;;;;10.23;5.15;;;16.90;99.90;;;;;;5037082;28;20025;-90
2023/07/23 09:34:26;;;;;;;7.05;4.53;;;17.00;99.90;;;;;;5036750;28;20079;-90
2023/07/23 09:36:53;;;;;;;7.15;4.43;;;17.00;99.90;;;;;;5037347;28;20470;-90
2023/07/23 09:39:23;;;;;;;7.88;4.60;;;17.00;99.90;;;;;;5058722;28;20017;-89
2023/07/23 09:41:49;;;;;;;6.57;4.23;;;17.00;99.90;;;;;;5040576;28;20474;-89
2023/07/23 09:44:15;;;;;;;6.80;4.43;;;17.10;99.90;;;;;;5057216;28;20029;-90
2023/07/23 09:46:45;;;;;;;6.35;3.90;;;17.10;99.90;;;;;;5041009;28;20461;-91
2023/07/23 09:49:14;;;;;;;;;;;17.10;99.90;;;;;;5041953;28;20025;-88
2023/07/23 09:51:53;;;;;;;8.70;3.75;;;17.10;99.90;;;;;;5040818;28;19963;-88
2023/07/23 09:54:20;;;;;;;7.13;3.63;;;17.10;99.90;;;;;;5040123;28;20513;-89
2023/07/23 09:56:47;;;;;;;6.20;3.80;;;17.10;99.90;;;;;;5040335;28;20029;-89
2023/07/23 09:59:14;;;;;;;5.72;3.75;;;17.10;99.90;;;;;;5040435;28;20521;-90
2023/07/23 10:01:42;;;;;;;5.45;3.88;;;17.10;99.90;;;;;;5040220;28;20033;-88
2023/07/23 10:04:11;;;;;;;6.28;3.72;;;17.20;99.90;;;;;;5040318;28;20029;-89
2023/07/23 10:06:37;;;;;;;6.18;4.18;;;17.20;99.90;;;;;;5040433;28;20036;-89
2023/07/23 10:09:03;;;;;;;6.53;3.40;;;17.20;99.90;;;;;;5040409;28;20070;-90
2023/07/23 10:11:29;;;;;;;5.63;3.85;;;17.20;99.90;;;;;;5040246;28;20066;-91
2023/07/23 10:13:55;;;;;;;7.43;4.07;;;17.20;99.90;;;;;;5040252;28;20075;-91
2023/07/23 10:16:22;;;;;;;5.20;3.75;;;17.20;99.90;;;;;;5040529;28;20025;-89
2023/07/23 10:18:49;;;;;;;7.90;3.60;;;17.30;99.90;;;;;;5040458;28;20017;-91
2023/07/23 10:21:16;;;;;;;6.45;4.00;;;17.30;99.90;;;;;;5040414;28;20355;-93
2023/07/23 10:23:42;;;;;;;8.35;3.88;;;17.30;99.90;;;;;;5040268;28;20021;-91
2023/07/23 10:26:28;;;;;;;4.57;3.03;;;17.30;99.90;;;;;;5039811;28;20029;-91
2023/07/23 10:29:00;;;;;;;5.93;3.85;;;17.30;99.90;;;;;;5040427;28;20021;-90
2023/07/23 10:31:28;;;;;;;5.55;3.70;;;17.30;99.90;;;;;;5055247;28;20075;-90
2023/07/23 10:33:54;;;;;;;5.53;3.42;;;17.40;99.90;;;;;;5056716;28;20060;-90
2023/07/23 10:36:22;;;;;;;6.00;3.88;;;17.40;99.90;;;;;;5042373;28;20020;-90
2023/07/23 10:39:04;;;;;;;5.47;3.60;;;17.40;99.90;;;;;;5019792;28;20029;-90
2023/07/23 10:41:53;;;;;;;4.78;3.13;;;17.40;99.90;;;;;;5021797;28;20035;-91
2023/07/23 10:44:27;;;;;;;5.57;3.45;;;17.40;99.90;;;;;;5036074;28;20441;-90
2023/07/23 10:46:53;;;;;;;5.20;3.03;;;17.40;99.90;;;;;;5036056;28;20036;-90
2023/07/23 10:49:21;;;;;;;5.15;3.15;;;17.40;99.90;;;;;;5018086;28;20025;-90
2023/07/23 10:51:50;;;;;;;6.38;3.25;;;17.40;99.90;;;;;;5035996;28;20080;-90
2023/07/23 10:54:17;;;;;;;6.38;3.25;;;17.40;99.90;;;;;;5019593;28;20033;-90
2023/07/23 10:56:43;;;;;;;4.88;3.22;;;17.40;99.90;;;;;;5019427;28;20025;-89
2023/07/23 10:59:19;;;;;;;5.60;3.28;;;17.40;99.90;;;;;;5002991;28;20030;-91
2023/07/23 11:01:48;;;;;;;4.65;3.00;;;17.30;99.90;;;;;;5036147;28;20029;-89
2023/07/23 11:04:16;;;;;;;5.35;3.45;;;17.30;99.90;;;;;;5020456;28;20029;-90
2023/07/23 11:06:57;;;;;;;6.78;3.92;;;17.30;99.90;;;;;;5035662;28;20028;-89
2023/07/23 11:09:26;;;;;;;;;;;17.30;99.90;;;;;;5036159;28;20113;-90
2023/07/23 11:11:52;;;;;;;7.30;4.10;;;17.30;99.90;;;;;;5036183;28;19909;-89
2023/07/23 11:14:20;;;;;;;7.47;4.57;;;17.30;99.90;;;;;;5035894;28;20022;-90
2023/07/23 11:16:47;;;;;;;8.43;4.25;;;17.30;99.90;;;;;;5019991;28;20037;-90
2023/07/23 11:19:14;;;;;;;6.22;3.97;;;17.30;99.90;;;;;;5020023;28;20022;-90
2023/07/23 11:21:50;;;;;;;6.88;4.35;;;17.40;99.90;;;;;;5022468;28;20045;-90
2023/07/23 11:24:17;;;;;;;7.80;4.22;;;17.40;99.90;;;;;;5053445;28;20090;-90
2023/07/23 11:26:43;;;;;;;6.75;4.07;;;17.40;99.90;;;;;;5056417;28;20044;-90
2023/07/23 11:29:09;;;;;;;7.13;4.20;;;17.40;99.90;;;;;;5039099;28;20033;-90
2023/07/23 11:31:35;;;;;;;7.78;4.55;;;17.40;99.90;;;;;;5023093;28;20383;-90
2023/07/23 11:34:01;;;;;;;7.68;4.60;;;17.40;99.90;;;;;;5018641;28;20225;-90
2023/07/23 11:36:28;;;;;;;7.78;4.93;;;17.40;99.90;;;;;;5018779;28;20145;-90
2023/07/23 11:38:56;;;;;;;8.82;4.68;;;17.50;99.90;;;;;;5018997;28;20053;-90
2023/07/23 11:41:36;;;;;;;7.93;4.82;;;17.50;99.90;;;;;;5018767;28;20103;-90
2023/07/23 11:44:05;;;;;;;10.35;5.30;;;17.50;99.90;;;;;;5019693;28;20048;-90
2023/07/23 11:46:36;;;;;;;8.93;6.13;;;17.60;99.90;;;;;;5035163;28;20371;-91
2023/07/23 11:49:03;;;;;;;12.23;5.80;;;17.60;99.90;;;;;;5019448;28;20052;-92
2023/07/23 11:51:33;;;;;;;9.73;6.13;;;17.70;99.90;;;;;;5018420;28;20076;-91
2023/07/23 11:54:02;;;;;;;7.53;5.80;;;17.70;99.90;;;;;;5018461;28;20029;-91
2023/07/23 11:56:30;;;;;;;8.45;6.13;;;17.80;99.90;;;;;;5018948;28;20025;-90
2023/07/23 11:59:01;;;;;;;8.63;5.78;;;17.90;99.90;;;;;;5018434;28;20026;-91
2023/07/23 12:01:26;;;;;;;8.07;5.72;;;17.90;99.90;;;;;;5018268;28;20025;-91
2023/07/23 12:03:53;;;;;;;9.25;6.25;;;18.00;99.90;;;;;;5018085;28;20028;-91
2023/07/23 12:06:19;;;;;;;9.23;5.90;;;18.00;99.90;;;;;;5018933;28;20033;-91
2023/07/23 12:08:46;;;;;;;8.25;6.20;;;18.10;99.90;;;;;;5019379;28;20034;-92
2023/07/23 12:11:13;;;;;;;8.85;5.90;;;18.10;99.90;;;;;;5018712;28;20522;-92
2023/07/23 12:13:51;;;;;;;7.10;5.68;;;18.20;99.90;;;;;;5019182;28;20056;-91
2023/07/23 12:16:35;;;;;;;8.75;5.80;;;18.20;99.90;;;;;;5018524;28;20030;-93
2023/07/23 12:19:03;;;;;;;11.50;6.00;;;18.20;99.90;;;;;;5018209;28;20032;-91
2023/07/23 12:21:29;;;;;;;9.52;5.90;;;18.30;99.90;;;;;;5018333;28;20030;-91
2023/07/23 12:23:58;;;;;;;8.02;6.28;;;18.30;99.90;;;;;;5017882;28;20424;-90
2023/07/23 12:26:29;;;;;;;8.27;6.13;;;18.30;99.90;;;;;;5017789;28;20049;-91
2023/07/23 12:28:56;;;;;;;8.00;6.03;;;18.40;99.90;;;;;;5017560;28;20402;-92
2023/07/23 12:31:22;;;;;;;7.75;5.50;;;18.40;99.90;;;;;;5018740;28;20134;-91
2023/07/23 12:33:48;;;;;;;7.78;5.72;;;18.50;99.90;;;;;;5018567;28;20427;-91
2023/07/23 12:36:13;;;;;;;8.98;5.75;;;18.50;99.90;;;;;;5016710;28;20045;-91
2023/07/23 12:38:39;;;;;;;7.90;5.57;;;18.60;99.90;;;;;;5018188;28;20037;-92
2023/07/23 12:41:05;;;;;;;9.70;5.97;;;18.60;99.90;;;;;;5017564;28;20535;-90
2023/07/23 12:43:36;;;;;;;9.45;5.43;;;18.70;99.90;;;;;;5018013;28;20064;-91
2023/07/23 12:46:03;;;;;;;10.07;5.75;;;18.70;99.90;;;;;;5017992;28;20459;-91
2023/07/23 12:48:30;;;;;;;7.65;5.18;;;18.80;99.90;;;;;;5017776;28;20038;-91
2023/07/23 12:50:55;;;;;;;9.13;5.25;;;18.90;99.90;;;;;;5018776;28;20108;-90
2023/07/23 12:53:21;;;;;;;8.77;5.88;;;18.90;99.90;;;;;;5019207;28;20053;-92
2023/07/23 12:55:47;;;;;;;8.23;6.55;;;18.90;99.90;;;;;;5019527;28;20120;-91
2023/07/23 12:58:12;;;;;;;9.07;6.72;;;19.00;99.90;;;;;;5018673;28;20033;-90